createdAt,value
2023-01-25T00:00:39.575Z,-0.10
2023-01-25T00:05:42.015Z,-0.20
2023-01-25T00:10:44.266Z,-0.20
2023-01-25T00:15:48.113Z,-0.20
2023-01-25T00:20:50.051Z,-0.20
2023-01-25T00:25:58.980Z,-0.20
2023-01-25T00:31:03.289Z,-0.30
2023-01-25T00:36:33.275Z,-0.20
2023-01-25T00:41:35.473Z,-0.20
2023-01-25T00:46:38.685Z,-0.20
2023-01-25T00:51:40.623Z,-0.20
2023-01-25T00:56:42.784Z,-0.20
2023-01-25T01:01:46.544Z,-0.20
2023-01-25T01:06:49.132Z,-0.20
2023-01-25T01:11:51.911Z,-0.30
2023-01-25T01:16:57.164Z,-0.40
2023-01-25T01:22:00.210Z,-0.40
2023-01-25T01:27:02.713Z,-0.40
2023-01-25T01:32:07.008Z,-0.30
2023-01-25T01:37:09.061Z,-0.30
2023-01-25T01:42:11.410Z,-0.30
2023-01-25T01:47:19.484Z,-0.20
2023-01-25T01:52:26.348Z,-0.20
2023-01-25T01:57:33.741Z,-0.20
2023-01-25T02:02:37.525Z,-0.10
2023-01-25T02:07:40.741Z,-0.20
2023-01-25T02:12:43.827Z,-0.20
2023-01-25T02:17:48.170Z,-0.20
2023-01-25T02:23:00.492Z,-0.10
2023-01-25T02:28:07.389Z,-0.20
2023-01-25T02:33:09.794Z,-0.20
2023-01-25T02:38:15.239Z,-0.20
2023-01-25T02:43:19.130Z,-0.20
2023-01-25T02:48:21.282Z,-0.20
2023-01-25T02:53:23.613Z,-0.20
2023-01-25T02:58:26.981Z,-0.20
2023-01-25T03:03:29.518Z,-0.20
2023-01-25T03:08:31.870Z,-0.20
2023-01-25T03:13:36.499Z,-0.20
2023-01-25T03:18:39.806Z,-0.20
2023-01-25T03:23:42.565Z,-0.20
2023-01-25T03:28:46.092Z,-0.20
2023-01-25T03:33:48.755Z,-0.20
2023-01-25T03:38:50.519Z,-0.20
2023-01-25T03:43:54.341Z,-0.20
2023-01-25T03:48:56.347Z,-0.20
2023-01-25T03:53:58.219Z,-0.30
2023-01-25T03:59:01.630Z,-0.20
2023-01-25T04:04:03.818Z,-0.30
2023-01-25T04:09:06.566Z,-0.20
2023-01-25T04:14:11.839Z,-0.20
2023-01-25T04:19:14.022Z,-0.10
2023-01-25T04:24:16.579Z,-0.20
2023-01-25T04:29:26.194Z,-0.20
2023-01-25T04:34:37.509Z,-0.20
2023-01-25T04:39:39.826Z,-0.20
2023-01-25T04:44:43.665Z,-0.20
2023-01-25T04:49:45.590Z,-0.20
2023-01-25T04:54:47.968Z,-0.20
2023-01-25T04:59:51.741Z,-0.20
2023-01-25T05:04:54.006Z,-0.20
2023-01-25T05:09:56.020Z,-0.20
2023-01-25T05:14:59.537Z,-0.20
2023-01-25T05:20:01.794Z,-0.10
2023-01-25T05:25:04.408Z,-0.20
2023-01-25T05:30:09.473Z,-0.20
2023-01-25T05:35:11.811Z,-0.20
2023-01-25T05:40:14.896Z,-0.20
2023-01-25T05:45:18.540Z,-0.30
2023-01-25T05:50:20.887Z,-0.20
2023-01-25T05:55:23.170Z,-0.30
2023-01-25T06:00:26.697Z,-0.30
2023-01-25T06:05:29.123Z,-0.30
2023-01-25T06:10:31.556Z,-0.30
2023-01-25T06:15:35.474Z,-0.30
2023-01-25T06:20:37.531Z,-0.20
2023-01-25T06:25:39.945Z,-0.20
2023-01-25T06:30:43.295Z,-0.20
2023-01-25T06:35:45.516Z,-0.20
2023-01-25T06:40:47.581Z,-0.20
2023-01-25T06:45:50.820Z,-0.30
2023-01-25T06:50:56.436Z,-0.40
2023-01-25T06:56:00.243Z,-0.50
2023-01-25T07:01:06.031Z,-0.60
2023-01-25T07:06:09.656Z,-0.60
2023-01-25T07:11:14.142Z,-0.60
2023-01-25T07:16:19.725Z,-0.60
2023-01-25T07:21:24.627Z,-0.50
2023-01-25T07:26:27.581Z,-0.40
2023-01-25T07:31:31.129Z,-0.30
2023-01-25T07:36:33.221Z,-0.30
2023-01-25T07:41:35.738Z,-0.10
2023-01-25T07:46:39.675Z,0.00
2023-01-25T07:51:41.959Z,0.10
2023-01-25T07:56:44.935Z,0.20
2023-01-25T08:01:48.255Z,0.30
2023-01-25T08:06:50.305Z,0.50
2023-01-25T08:11:53.765Z,0.60
2023-01-25T08:16:57.252Z,0.70
2023-01-25T08:21:59.437Z,0.80
2023-01-25T08:27:01.463Z,0.90
2023-01-25T08:32:06.425Z,1.00
2023-01-25T08:37:08.805Z,1.10
2023-01-25T08:42:11.112Z,1.20
2023-01-25T08:47:14.679Z,1.20
2023-01-25T08:52:16.725Z,1.80
2023-01-25T08:57:19.135Z,1.90
2023-01-25T09:02:22.745Z,1.80
2023-01-25T09:07:24.999Z,1.90
2023-01-25T09:12:27.245Z,1.50
2023-01-25T09:17:31.181Z,1.60
2023-01-25T09:22:33.635Z,1.50
2023-01-25T09:27:35.604Z,1.60
2023-01-25T09:32:40.457Z,1.80
2023-01-25T09:37:42.684Z,2.20
2023-01-25T09:43:01.601Z,2.80
2023-01-25T09:48:21.349Z,2.10
2023-01-25T09:53:31.948Z,2.10
2023-01-25T09:58:37.892Z,2.50
2023-01-25T10:03:50.193Z,2.80
2023-01-25T10:08:59.656Z,2.70
2023-01-25T10:14:02.248Z,2.40
2023-01-25T10:19:19.245Z,3.30
2023-01-25T10:24:32.818Z,3.90
2023-01-25T10:29:37.981Z,4.30
2023-01-25T10:34:55.880Z,4.70
2023-01-25T10:40:04.331Z,5.50
2023-01-25T10:45:13.809Z,5.10
2023-01-25T10:50:51.640Z,4.80
2023-01-25T10:56:00.848Z,5.70
2023-01-25T11:01:04.333Z,6.20
2023-01-25T11:06:09.675Z,7.70
2023-01-25T11:11:27.274Z,7.70
2023-01-25T11:16:35.683Z,7.10
2023-01-25T11:21:52.164Z,6.50
2023-01-25T11:27:14.019Z,6.40
2023-01-25T11:32:21.849Z,6.50
2023-01-25T11:37:42.340Z,7.20
2023-01-25T11:42:58.522Z,7.50
2023-01-25T11:48:15.825Z,7.50
2023-01-25T11:53:35.303Z,7.10
2023-01-25T11:58:59.020Z,7.30
2023-01-25T12:04:48.735Z,7.60
2023-01-25T12:10:16.223Z,7.10
2023-01-25T12:15:30.547Z,6.30
2023-01-25T12:21:01.593Z,6.00
2023-01-25T12:26:17.490Z,5.70
2023-01-25T12:31:24.186Z,5.50
2023-01-25T12:36:29.851Z,5.00
2023-01-25T12:41:41.945Z,4.90
2023-01-25T12:46:48.482Z,4.70
2023-01-25T12:51:53.186Z,4.30
2023-01-25T12:57:02.655Z,4.00
2023-01-25T13:02:20.521Z,4.10
2023-01-25T13:07:29.538Z,4.20
2023-01-25T13:12:52.449Z,4.10
2023-01-25T13:17:54.742Z,4.10
2023-01-25T13:22:59.896Z,3.90
2023-01-25T13:28:39.004Z,3.90
2023-01-25T13:33:42.731Z,3.90
2023-01-25T13:38:44.823Z,3.80
2023-01-25T13:43:55.991Z,3.90
2023-01-25T13:49:05.451Z,3.90
2023-01-25T13:54:07.511Z,3.70
2023-01-25T13:59:25.692Z,3.50
2023-01-25T14:04:30.680Z,3.00
2023-01-25T14:09:33.233Z,3.00
2023-01-25T14:14:37.059Z,3.00
2023-01-25T14:19:41.335Z,2.90
2023-01-25T14:24:43.907Z,2.80
2023-01-25T14:29:50.184Z,2.70
2023-01-25T14:34:54.012Z,2.50
2023-01-25T14:39:56.067Z,2.50
2023-01-25T14:44:58.409Z,2.60
2023-01-25T14:50:35.084Z,2.50
2023-01-25T14:55:38.639Z,2.40
2023-01-25T15:00:41.330Z,2.30
2023-01-25T15:05:47.759Z,2.30
2023-01-25T15:10:54.462Z,2.40
2023-01-25T15:15:58.402Z,2.20
2023-01-25T15:21:02.046Z,2.20
2023-01-25T15:26:13.174Z,2.20
2023-01-25T15:31:19.501Z,2.20
2023-01-25T15:36:23.025Z,2.10
2023-01-25T15:41:25.243Z,2.00
2023-01-25T15:46:29.638Z,1.90
2023-01-25T15:51:35.708Z,1.80
2023-01-25T15:56:39.007Z,1.80
2023-01-25T16:01:42.016Z,1.80
2023-01-25T16:06:47.373Z,1.70
2023-01-25T16:11:52.329Z,1.70
2023-01-25T16:16:55.837Z,1.60
2023-01-25T16:22:00.372Z,1.60
2023-01-25T16:27:03.242Z,1.60
2023-01-25T16:32:05.822Z,1.60
2023-01-25T16:37:13.070Z,1.60
2023-01-25T16:42:15.938Z,1.50
2023-01-25T16:47:23.393Z,1.50
2023-01-25T16:52:28.632Z,1.60
2023-01-25T16:57:31.645Z,1.50
2023-01-25T17:02:34.019Z,1.40
2023-01-25T17:07:38.958Z,1.40
2023-01-25T17:12:41.839Z,1.40
2023-01-25T17:17:45.329Z,1.40
2023-01-25T17:22:51.713Z,1.40
2023-01-25T17:27:54.699Z,1.40
2023-01-25T17:33:00.142Z,1.40
2023-01-25T17:38:04.830Z,1.50
2023-01-25T17:43:08.976Z,1.40
2023-01-25T17:48:13.003Z,1.50
2023-01-25T17:53:17.584Z,1.50
2023-01-25T17:58:22.658Z,1.40
2023-01-25T18:03:26.134Z,1.40
2023-01-25T18:08:32.257Z,1.40
2023-01-25T18:13:36.305Z,1.40
2023-01-25T18:18:40.047Z,1.30
2023-01-25T18:23:50.280Z,1.30
2023-01-25T18:28:58.223Z,1.40
2023-01-25T18:34:02.413Z,1.40
2023-01-25T18:39:09.369Z,1.30
2023-01-25T18:44:11.991Z,1.30
2023-01-25T18:49:15.979Z,1.40
2023-01-25T18:54:23.670Z,1.40
2023-01-25T18:59:27.186Z,1.40
2023-01-25T19:04:30.399Z,1.30
2023-01-25T19:09:35.230Z,1.30
2023-01-25T19:14:41.153Z,1.30
2023-01-25T19:19:45.044Z,1.20
2023-01-25T19:24:52.081Z,1.20
2023-01-25T19:29:56.242Z,1.20
2023-01-25T19:35:00.484Z,1.20
2023-01-25T19:40:06.472Z,1.50
2023-01-25T19:45:13.918Z,1.30
2023-01-25T19:50:17.914Z,1.20
2023-01-25T19:55:25.778Z,1.20
2023-01-25T20:00:31.441Z,1.10
2023-01-25T20:06:08.325Z,1.10
2023-01-25T20:11:18.632Z,1.10
2023-01-25T20:16:51.299Z,1.00
2023-01-25T20:21:54.584Z,1.00
2023-01-25T20:27:02.253Z,1.00
2023-01-25T20:32:09.655Z,1.00
2023-01-25T20:37:14.833Z,1.00
2023-01-25T20:42:20.009Z,1.00
2023-01-25T20:47:24.609Z,1.00
2023-01-25T20:52:34.128Z,1.00
2023-01-25T20:57:39.867Z,1.00
2023-01-25T21:02:44.675Z,1.00
2023-01-25T21:07:49.638Z,0.90
2023-01-25T21:12:56.744Z,0.90
2023-01-25T21:18:02.420Z,0.90
2023-01-25T21:23:06.540Z,0.90
2023-01-25T21:28:13.124Z,0.90
2023-01-25T21:33:16.378Z,0.90
2023-01-25T21:38:22.578Z,0.90
2023-01-25T21:43:27.051Z,0.90
2023-01-25T21:48:46.887Z,0.90
2023-01-25T21:53:51.659Z,0.90
2023-01-25T21:58:55.901Z,0.90
2023-01-25T22:03:58.521Z,0.90
2023-01-25T22:09:00.600Z,0.90
2023-01-25T22:14:04.588Z,1.00
2023-01-25T22:19:06.784Z,1.00
2023-01-25T22:24:11.646Z,1.00
2023-01-25T22:29:15.420Z,1.00
2023-01-25T22:34:17.737Z,1.00
2023-01-25T22:39:20.066Z,0.80
2023-01-25T22:44:23.463Z,0.70
2023-01-25T22:49:25.687Z,0.70
2023-01-25T22:54:27.855Z,0.70
2023-01-25T22:59:32.386Z,0.60
2023-01-25T23:04:34.698Z,0.60
2023-01-25T23:09:36.782Z,0.60
2023-01-25T23:14:51.509Z,0.50
2023-01-25T23:19:53.763Z,0.50
2023-01-25T23:24:56.014Z,0.50
2023-01-25T23:30:00.125Z,0.60
2023-01-25T23:35:02.229Z,0.60
2023-01-25T23:40:04.361Z,0.60
2023-01-25T23:45:09.769Z,0.50
2023-01-25T23:50:13.375Z,0.60
2023-01-25T23:55:15.997Z,0.50
